Time;durP1;ratioP1;P1;durP2;ratioP2;P2;SDS_P1;SDS_P2;PMS_P1;PMS_P2;Temp;Humidity;BMP_temperature;BMP_pressure;BME280_temperature;BME280_humidity;BME280_pressure;Samples;Min_cycle;Max_cycle;Signal;HPM_P1;HPM_P2
2022/04/06 00:00:35;;;;;;;;;;;7.80;99.90;;;;;;5054784;28;19916;-72
2022/04/06 00:03:01;;;;;;;;;;;7.80;99.90;;;;;;5054593;28;19960;-72
2022/04/06 00:05:26;;;;;;;;;;;7.80;99.90;;;;;;5054357;28;19909;-72
2022/04/06 00:07:52;;;;;;;;;;;7.80;99.90;;;;;;5051307;28;19914;-72
2022/04/06 00:10:17;;;;;;;;;;;7.80;99.90;;;;;;5055000;28;19935;-72
2022/04/06 00:12:43;;;;;;;;;;;7.80;99.90;;;;;;5056164;28;19960;-72
2022/04/06 00:15:09;;;;;;;;;;;7.80;99.90;;;;;;5054359;28;19963;-72
2022/04/06 00:17:35;;;;;;;;;;;7.80;99.90;;;;;;5054515;28;19938;-72
2022/04/06 00:20:01;;;;;;;;;;;7.90;99.90;;;;;;5054351;28;20438;-72
2022/04/06 00:22:26;;;;;;;;;;;7.90;99.90;;;;;;5047018;28;19914;-72
2022/04/06 00:24:52;;;;;;;;;;;7.80;99.90;;;;;;5054185;28;19916;-72
2022/04/06 00:27:18;;;;;;;;;;;7.80;99.90;;;;;;5054375;28;20350;-72
2022/04/06 00:29:43;;;;;;;;;;;7.80;99.90;;;;;;5054347;28;19912;-72
2022/04/06 00:32:09;;;;;;;;;;;7.70;99.90;;;;;;5054329;28;19908;-72
2022/04/06 00:37:18;;;;;;;;;;;7.70;99.90;;;;;;5054693;28;19916;-72
2022/04/06 00:39:44;;;;;;;;;;;7.80;99.90;;;;;;5054133;28;19913;-72
2022/04/06 00:42:09;;;;;;;;;;;7.70;99.90;;;;;;5053924;28;20417;-72
2022/04/06 00:44:35;;;;;;;;;;;7.70;99.90;;;;;;5053407;28;19915;-72
2022/04/06 00:47:02;;;;;;;;;;;7.70;99.90;;;;;;5053939;28;19908;-72
2022/04/06 00:49:29;;;;;;;;;;;7.70;99.90;;;;;;5054020;28;19913;-72
2022/04/06 00:51:54;;;;;;;;;;;7.80;99.90;;;;;;5051616;28;19908;-72
2022/04/06 00:54:21;;;;;;;;;;;7.80;99.90;;;;;;5053581;28;20003;-72
2022/04/06 00:56:46;;;;;;;;;;;7.80;99.90;;;;;;5053932;28;20003;-72
2022/04/06 00:59:12;;;;;;;;;;;7.80;99.90;;;;;;5053801;28;20417;-72
2022/04/06 01:01:38;;;;;;;;;;;7.80;99.90;;;;;;5053336;28;20362;-72
2022/04/06 01:04:03;;;;;;;;;;;7.80;99.90;;;;;;5053457;28;19916;-71
2022/04/06 01:06:29;;;;;;;;;;;7.80;99.90;;;;;;5054180;28;19967;-72
2022/04/06 01:08:54;;;;;;;;;;;7.80;99.90;;;;;;5053316;28;19916;-72
2022/04/06 01:11:20;;;;;;;;;;;7.80;99.90;;;;;;5053702;28;19913;-72
2022/04/06 01:13:47;;;;;;;;;;;7.80;99.90;;;;;;5053234;28;19916;-72
2022/04/06 01:16:13;;;;;;;;;;;7.80;99.90;;;;;;5053331;28;20061;-72
2022/04/06 01:18:40;;;;;;;;;;;7.80;99.90;;;;;;5053310;28;20381;-72
2022/04/06 01:21:06;;;;;;;;;;;7.90;99.90;;;;;;5053262;28;19991;-72
2022/04/06 01:23:31;;;;;;;;;;;7.80;99.90;;;;;;5052858;28;20393;-72
2022/04/06 01:25:57;;;;;;;;;;;7.80;99.90;;;;;;5053259;28;19908;-72
2022/04/06 01:28:24;;;;;;;;;;;7.80;99.90;;;;;;5053319;28;20039;-72
2022/04/06 01:30:49;;;;;;;;;;;7.80;99.90;;;;;;5051533;28;19908;-72
2022/04/06 01:33:15;;;;;;;;;;;7.80;99.90;;;;;;5052865;28;19962;-72
2022/04/06 01:35:42;;;;;;;;;;;7.80;99.90;;;;;;5051938;28;20282;-72
2022/04/06 01:38:08;;;;;;;;;;;7.70;99.90;;;;;;5052843;28;19931;-72
2022/04/06 01:40:34;;;;;;;;;;;7.80;99.90;;;;;;5052984;28;19912;-72
2022/04/06 01:43:00;;;;;;;;;;;7.80;99.90;;;;;;5052779;28;19913;-72
2022/04/06 01:45:25;;;;;;;;;;;7.80;99.90;;;;;;5052602;28;19916;-72
2022/04/06 01:47:51;;;;;;;;;;;7.80;99.90;;;;;;5052904;28;19916;-72
2022/04/06 01:53:02;;;;;;;;;;;7.80;99.90;;;;;;5048941;28;19962;-72
2022/04/06 01:55:28;;;;;;;;;;;7.80;99.90;;;;;;5052578;28;19909;-72
2022/04/06 01:57:53;;;;;;;;;;;7.80;99.90;;;;;;5051868;28;19921;-72
2022/04/06 02:00:19;;;;;;;;;;;7.80;99.90;;;;;;5052596;28;20255;-72
2022/04/06 02:02:47;;;;;;;;;;;7.80;99.90;;;;;;5052282;28;20273;-72
2022/04/06 02:05:13;;;;;;;;;;;7.90;99.90;;;;;;5052237;28;19935;-72
2022/04/06 02:07:39;;;;;;;;;;;7.90;99.90;;;;;;5052432;28;19916;-72
2022/04/06 02:10:05;;;;;;;;;;;7.90;99.90;;;;;;5052421;28;19916;-72
2022/04/06 02:12:31;;;;;;;;;;;7.80;99.90;;;;;;5052141;28;19916;-72
2022/04/06 02:14:57;;;;;;;;;;;7.80;99.90;;;;;;5045775;28;20366;-72
2022/04/06 02:17:22;;;;;;;;;;;7.80;99.90;;;;;;5052145;28;19967;-72
2022/04/06 02:19:48;;;;;;;;;;;7.80;99.90;;;;;;5052305;28;20383;-72
2022/04/06 02:22:14;;;;;;;;;;;7.80;99.90;;;;;;5055614;28;19999;-72
2022/04/06 02:24:39;;;;;;;;;;;7.80;99.90;;;;;;5051868;28;19908;-72
2022/04/06 02:27:06;;;;;;;;;;;7.90;99.90;;;;;;5052141;28;19908;-72
2022/04/06 02:29:32;;;;;;;;;;;7.80;99.90;;;;;;5052104;28;19909;-72
2022/04/06 02:31:57;;;;;;;;;;;7.80;99.90;;;;;;5053202;28;19938;-72
2022/04/06 02:34:22;;;;;;;;;;;7.80;99.90;;;;;;5051563;28;20277;-71
2022/04/06 02:36:48;;;;;;;;;;;7.80;99.90;;;;;;5051819;28;19963;-72
2022/04/06 02:39:14;;;;;;;;;;;7.80;99.90;;;;;;5051863;28;20361;-72
2022/04/06 02:41:39;;;;;;;;;;;7.90;99.90;;;;;;5051544;28;19971;-72
2022/04/06 02:44:05;;;;;;;;;;;7.80;99.90;;;;;;5051757;28;19908;-72
2022/04/06 02:46:31;;;;;;;;;;;7.80;99.90;;;;;;5048001;28;19999;-72
2022/04/06 02:48:56;;;;;;;;;;;7.80;99.90;;;;;;5047302;28;19916;-72
2022/04/06 02:51:22;;;;;;;;;;;7.80;99.90;;;;;;5051551;28;19913;-72
2022/04/06 02:53:47;;;;;;;;;;;7.70;99.90;;;;;;5051435;28;20441;-72
2022/04/06 02:56:14;;;;;;;;;;;7.70;99.90;;;;;;5051733;28;20343;-72
2022/04/06 02:58:40;;;;;;;;;;;7.70;99.90;;;;;;5051635;28;20289;-72
2022/04/06 03:01:06;;;;;;;;;;;7.70;99.90;;;;;;5051461;28;19912;-72
2022/04/06 03:03:31;;;;;;;;;;;7.70;99.90;;;;;;5048018;28;19912;-72
2022/04/06 03:05:57;;;;;;;;;;;7.60;99.90;;;;;;5051338;28;19909;-72
2022/04/06 03:08:22;;;;;;;;;;;7.60;99.90;;;;;;5051412;28;19967;-71
2022/04/06 03:10:48;;;;;;;;;;;7.50;99.90;;;;;;5051308;28;20322;-72
2022/04/06 03:13:13;;;;;;;;;;;7.50;99.90;;;;;;5051286;28;20270;-72
2022/04/06 03:15:39;;;;;;;;;;;7.50;99.90;;;;;;5051400;28;19909;-72
2022/04/06 03:18:04;;;;;;;;;;;7.60;99.90;;;;;;5048050;28;19917;-72
2022/04/06 03:20:30;;;;;;;;;;;7.50;99.90;;;;;;5051338;28;19909;-72
2022/04/06 03:22:56;;;;;;;;;;;7.60;99.90;;;;;;5051638;28;20365;-72
2022/04/06 03:25:21;;;;;;;;;;;7.50;99.90;;;;;;5051104;28;19971;-72
2022/04/06 03:27:47;;;;;;;;;;;7.60;99.90;;;;;;5051437;28;19915;-72
2022/04/06 03:30:12;;;;;;;;;;;7.60;99.90;;;;;;5051395;28;20424;-72
2022/04/06 03:32:39;;;;;;;;;;;7.60;99.90;;;;;;5046351;28;20381;-72
2022/04/06 03:35:04;;;;;;;;;;;7.60;99.90;;;;;;5053518;28;19970;-72
2022/04/06 03:37:30;;;;;;;;;;;7.60;99.90;;;;;;5047836;28;19913;-72
2022/04/06 03:39:55;;;;;;;;;;;7.60;99.90;;;;;;5051024;28;20358;-72
2022/04/06 03:42:21;;;;;;;;;;;7.70;99.90;;;;;;5051205;28;19919;-72
2022/04/06 03:44:46;;;;;;;;;;;7.70;99.90;;;;;;5051079;28;19908;-72
2022/04/06 03:47:12;;;;;;;;;;;7.60;99.90;;;;;;5051152;28;20007;-72
2022/04/06 03:49:37;;;;;;;;;;;7.60;99.90;;;;;;5051057;28;19909;-72
2022/04/06 03:52:03;;;;;;;;;;;7.70;99.90;;;;;;5047798;28;19909;-72
2022/04/06 03:54:29;;;;;;;;;;;7.50;99.90;;;;;;5051629;28;20385;-72
2022/04/06 03:56:54;;;;;;;;;;;7.50;99.90;;;;;;5051150;28;19932;-72
2022/04/06 03:59:20;;;;;;;;;;;7.50;99.90;;;;;;5051062;28;19916;-72
2022/04/06 04:01:45;;;;;;;;;;;7.60;99.90;;;;;;5054028;28;20388;-71
2022/04/06 04:04:11;;;;;;;;;;;7.70;99.90;;;;;;5050713;28;19913;-71
2022/04/06 04:06:36;;;;;;;;;;;7.70;99.90;;;;;;5051006;28;20332;-71
2022/04/06 04:09:02;;;;;;;;;;;7.80;99.90;;;;;;5051057;28;20004;-71
2022/04/06 04:11:29;;;;;;;;;;;7.70;99.90;;;;;;5051000;28;19909;-71
2022/04/06 04:13:55;;;;;;;;;;;7.60;99.90;;;;;;5050910;28;20392;-72
2022/04/06 04:16:21;;;;;;;;;;;7.50;99.90;;;;;;5051091;28;19944;-71
2022/04/06 04:18:46;;;;;;;;;;;7.50;99.90;;;;;;5050910;28;19963;-72
2022/04/06 04:23:55;;;;;;;;;;;7.50;99.90;;;;;;5054731;28;20017;-72
2022/04/06 04:26:21;;;;;;;;;;;7.50;99.90;;;;;;5054832;28;20578;-72
2022/04/06 04:28:46;;;;;;;;;;;7.60;99.90;;;;;;5054525;28;19919;-72
2022/04/06 04:31:12;;;;;;;;;;;7.60;99.90;;;;;;5047888;28;19955;-71
2022/04/06 04:33:37;;;;;;;;;;;7.70;99.90;;;;;;5053987;28;20297;-71
2022/04/06 04:36:03;;;;;;;;;;;7.70;99.90;;;;;;5054359;28;19909;-71
2022/04/06 04:38:28;;;;;;;;;;;7.70;99.90;;;;;;5054148;28;20392;-71
2022/04/06 04:40:54;;;;;;;;;;;7.70;99.90;;;;;;5054091;28;19909;-71
2022/04/06 04:43:20;;;;;;;;;;;7.70;99.90;;;;;;5053719;28;20570;-71
2022/04/06 04:45:45;;;;;;;;;;;7.60;99.90;;;;;;5054956;28;19954;-71
2022/04/06 04:48:11;;;;;;;;;;;7.50;99.90;;;;;;5053950;28;20408;-71
2022/04/06 04:50:36;;;;;;;;;;;7.60;99.90;;;;;;5053821;28;20007;-71
2022/04/06 04:53:02;;;;;;;;;;;7.70;99.90;;;;;;5047270;28;19971;-72
2022/04/06 04:55:27;;;;;;;;;;;7.60;99.90;;;;;;5053480;28;19909;-71
2022/04/06 04:57:53;;;;;;;;;;;7.60;99.90;;;;;;5047423;28;19916;-71
2022/04/06 05:00:19;;;;;;;;;;;7.50;99.90;;;;;;5053858;28;19982;-72
2022/04/06 05:02:44;;;;;;;;;;;7.50;99.90;;;;;;5053536;28;20453;-72
2022/04/06 05:05:10;;;;;;;;;;;7.60;99.90;;;;;;5053534;28;19913;-71
2022/04/06 05:07:37;;;;;;;;;;;7.70;99.90;;;;;;5053536;28;20002;-71
2022/04/06 05:10:06;;;;;;;;;;;7.70;99.90;;;;;;5053567;28;19912;-72
2022/04/06 05:12:32;;;;;;;;;;;7.70;99.90;;;;;;5053540;28;20370;-71
2022/04/06 05:14:59;;;;;;;;;;;7.70;99.90;;;;;;5053208;28;20004;-72
2022/04/06 05:17:25;;;;;;;;;;;7.60;99.90;;;;;;5053498;28;19966;-72
2022/04/06 05:19:50;;;;;;;;;;;7.50;99.90;;;;;;5053243;28;19908;-71
2022/04/06 05:22:16;;;;;;;;;;;7.50;99.90;;;;;;5053154;28;20205;-71
2022/04/06 05:24:41;;;;;;;;;;;7.50;99.90;;;;;;5053082;28;19909;-72
2022/04/06 05:27:07;;;;;;;;;;;7.50;99.90;;;;;;5052691;28;20370;-72
2022/04/06 05:29:32;;;;;;;;;;;7.60;99.90;;;;;;5054890;28;19913;-72
2022/04/06 05:31:58;;;;;;;;;;;7.60;99.90;;;;;;5059151;28;20324;-72
2022/04/06 05:34:23;;;;;;;;;;;7.80;99.90;;;;;;5052637;28;19932;-72
2022/04/06 05:36:49;;;;;;;;;;;7.80;99.90;;;;;;5053116;28;19999;-72
2022/04/06 05:39:14;;;;;;;;;;;7.80;99.90;;;;;;5052905;28;19909;-72
2022/04/06 05:41:40;;;;;;;;;;;7.90;99.90;;;;;;5052544;28;19916;-72
2022/04/06 05:44:05;;;;;;;;;;;8.00;99.90;;;;;;5052508;28;20023;-72
2022/04/06 05:46:31;;;;;;;;;;;8.00;99.90;;;;;;5053162;28;20350;-72
2022/04/06 05:48:56;;;;;;;;;;;7.90;99.90;;;;;;5052599;28;19908;-72
2022/04/06 05:51:22;;;;;;;;;;;8.00;99.90;;;;;;5052389;28;19913;-72
2022/04/06 05:53:47;;;;;;;;;;;8.00;99.90;;;;;;5052347;28;19913;-72
2022/04/06 05:56:13;;;;;;;;;;;8.10;99.90;;;;;;5052552;28;20005;-72
2022/04/06 05:58:39;;;;;;;;;;;8.00;99.90;;;;;;5051493;28;19908;-72
2022/04/06 06:01:04;;;;;;;;;;;8.00;99.90;;;;;;5049915;28;19913;-72
2022/04/06 06:03:30;;;;;;;;;;;8.00;99.90;;;;;;5051775;28;20388;-72
2022/04/06 06:05:56;;;;;;;;;;;8.00;99.90;;;;;;5052391;28;19913;-72
2022/04/06 06:08:21;;;;;;;;;;;8.00;99.90;;;;;;5052302;28;20327;-72
2022/04/06 06:10:47;;;;;;;;;;;8.00;99.90;;;;;;5051476;28;19909;-72
2022/04/06 06:13:13;;;;;;;;;;;8.20;99.90;;;;;;5053356;28;19913;-72
2022/04/06 06:15:38;;;;;;;;;;;8.30;99.90;;;;;;5052112;28;20366;-72
2022/04/06 06:18:04;;;;;;;;;;;8.40;99.90;;;;;;5047016;28;19949;-72
2022/04/06 06:20:29;;;;;;;;;;;8.40;99.90;;;;;;5051332;28;20353;-72
2022/04/06 06:22:55;;;;;;;;;;;8.50;99.90;;;;;;5051513;28;19912;-72
2022/04/06 06:25:20;;;;;;;;;;;8.40;99.90;;;;;;5051633;28;19909;-72
2022/04/06 06:27:46;;;;;;;;;;;8.50;99.90;;;;;;5051769;28;19909;-72
2022/04/06 06:30:12;;;;;;;;;;;8.50;99.90;;;;;;5051961;28;20325;-72
2022/04/06 06:32:38;;;;;;;;;;;8.50;99.90;;;;;;5051566;28;19908;-72
2022/04/06 06:35:04;;;;;;;;;;;8.40;99.90;;;;;;5048672;28;20338;-72
2022/04/06 06:37:29;;;;;;;;;;;8.50;99.90;;;;;;5048470;28;19948;-72
2022/04/06 06:39:55;;;;;;;;;;;8.50;99.90;;;;;;5050113;28;19916;-72
2022/04/06 06:42:21;;;;;;;;;;;8.50;99.90;;;;;;5052661;28;19913;-72
2022/04/06 06:44:46;;;;;;;;;;;8.60;99.90;;;;;;5051173;28;19931;-72
2022/04/06 06:47:12;;;;;;;;;;;8.60;99.90;;;;;;5051369;28;19923;-72
2022/04/06 06:49:40;;;;;;;;;;;8.60;99.90;;;;;;5048268;28;20247;-72
2022/04/06 06:52:06;;;;;;;;;;;8.70;99.90;;;;;;5050936;28;19908;-72
2022/04/06 06:54:31;;;;;;;;;;;8.70;99.90;;;;;;5045140;28;19913;-72
2022/04/06 06:56:57;;;;;;;;;;;8.60;99.90;;;;;;5044563;28;19909;-72
2022/04/06 06:59:22;;;;;;;;;;;8.60;99.90;;;;;;5054379;28;19913;-72
2022/04/06 07:01:48;;;;;;;;;;;8.60;99.90;;;;;;5050832;28;19909;-72
2022/04/06 07:04:14;;;;;;;;;;;8.70;99.90;;;;;;5050792;28;20318;-72
2022/04/06 07:06:39;;;;;;;;;;;8.70;99.90;;;;;;5048305;28;19936;-72
2022/04/06 07:09:04;;;;;;;;;;;8.70;99.90;;;;;;5043796;28;19909;-72
2022/04/06 07:11:30;;;;;;;;;;;8.80;99.90;;;;;;5059912;28;19944;-72
2022/04/06 07:13:55;;;;;;;;;;;8.90;99.90;;;;;;5050509;28;20273;-72
2022/04/06 07:16:21;;;;;;;;;;;8.90;99.90;;;;;;5050687;28;19909;-72
2022/04/06 07:18:46;;;;;;;;;;;9.00;99.90;;;;;;5050178;28;19917;-72
2022/04/06 07:21:12;;;;;;;;;;;9.20;99.90;;;;;;5050601;28;19915;-72
2022/04/06 07:23:40;;;;;;;;;;;9.20;99.90;;;;;;5043887;28;19995;-72
2022/04/06 07:26:05;;;;;;;;;;;9.30;99.90;;;;;;5044331;28;19935;-72
2022/04/06 07:28:32;;;;;;;;;;;9.40;99.90;;;;;;5050572;28;19908;-73
2022/04/06 07:30:58;;;;;;;;;;;9.50;99.90;;;;;;5050622;28;19983;-72
2022/04/06 07:33:23;;;;;;;;;;;9.50;99.90;;;;;;5050211;28;19952;-72
2022/04/06 07:35:49;;;;;;;;;;;9.60;99.90;;;;;;5050651;28;19916;-73
2022/04/06 07:38:14;;;;;;;;;;;9.50;99.90;;;;;;5046640;28;20396;-72
2022/04/06 07:40:41;;;;;;;;;;;9.50;99.90;;;;;;5048074;28;19909;-72
2022/04/06 07:43:07;;;;;;;;;;;9.50;99.90;;;;;;5049488;28;19916;-72
2022/04/06 07:45:32;;;;;;;;;;;9.60;99.90;;;;;;5050426;28;20330;-72
2022/04/06 07:47:58;;;;;;;;;;;9.50;99.90;;;;;;5049775;28;20031;-72
2022/04/06 07:50:23;;;;;;;;;;;9.50;99.90;;;;;;5050205;28;19948;-72
2022/04/06 07:52:49;;;;;;;;;;;9.60;99.90;;;;;;5050388;28;19909;-72
2022/04/06 07:55:15;;;;;;;;;;;9.60;99.90;;;;;;5043148;28;19928;-72
2022/04/06 07:57:41;;;;;;;;;;;9.70;99.90;;;;;;5054169;28;19908;-72
2022/04/06 08:00:16;;;;;;;;;;;9.70;99.90;;;;;;5054075;28;19909;-72
2022/04/06 08:02:43;;;;;;;;;;;9.70;99.90;;;;;;5051710;28;19917;-72
2022/04/06 08:05:09;;;;;;;;;;;9.70;99.90;;;;;;5053852;28;19909;-72
2022/04/06 08:07:39;;;;;;;;;;;9.70;99.90;;;;;;5054063;28;20320;-73
2022/04/06 08:10:08;;;;;;;;;;;9.70;99.90;;;;;;5049185;28;19909;-73
2022/04/06 08:12:34;;;;;;;;;;;9.70;99.90;;;;;;5053892;28;19955;-73
2022/04/06 08:15:00;;;;;;;;;;;9.70;99.90;;;;;;5053830;28;20338;-73
2022/04/06 08:17:26;;;;;;;;;;;9.90;99.90;;;;;;5053824;28;19984;-73
2022/04/06 08:19:52;;;;;;;;;;;10.10;99.90;;;;;;5053875;28;19915;-73
2022/04/06 08:22:17;;;;;;;;;;;10.20;99.90;;;;;;5053718;28;20003;-73
2022/04/06 08:24:43;;;;;;;;;;;10.30;99.90;;;;;;5048342;28;20404;-73
2022/04/06 08:27:08;;;;;;;;;;;10.40;99.90;;;;;;5053664;28;19935;-73
2022/04/06 08:29:34;;;;;;;;;;;10.40;99.90;;;;;;5053518;28;20281;-73
2022/04/06 08:31:59;;;;;;;;;;;10.70;99.90;;;;;;5053722;28;20278;-73
2022/04/06 08:34:25;;;;;;;;;;;10.90;99.90;;;;;;5053297;28;19962;-73
2022/04/06 08:36:50;;;;;;;;;;;10.90;99.90;;;;;;5053208;28;19924;-73
2022/04/06 08:39:16;;;;;;;;;;;10.90;99.90;;;;;;5051593;28;19909;-73
2022/04/06 08:41:42;;;;;;;;;;;11.00;99.90;;;;;;5053070;28;19909;-73
2022/04/06 08:44:08;;;;;;;;;;;11.30;99.90;;;;;;5052812;28;19919;-73
2022/04/06 08:46:38;;;;;;;;;;;11.40;99.90;;;;;;5053510;28;19964;-73
2022/04/06 08:49:03;;;;;;;;;;;11.60;99.90;;;;;;5053215;28;19935;-73
2022/04/06 08:51:29;;;;;;;;;;;11.70;99.90;;;;;;5053299;28;20360;-73
2022/04/06 08:53:55;;;;;;;;;;;11.70;99.90;;;;;;5046973;28;20307;-73
2022/04/06 08:56:22;;;;;;;;;;;11.60;99.90;;;;;;5052932;28;19966;-73
2022/04/06 08:58:47;;;;;;;;;;;11.40;99.90;;;;;;5052588;28;19931;-73
2022/04/06 09:01:13;;;;;;;;;;;11.40;99.90;;;;;;5053035;28;20405;-73
2022/04/06 09:03:38;;;;;;;;;;;11.60;99.90;;;;;;5052991;28;19912;-73
2022/04/06 09:06:05;;;;;;;;;;;11.90;99.90;;;;;;5055337;28;19974;-73
2022/04/06 09:08:39;;;;;;;;;;;11.90;99.90;;;;;;5051892;28;19917;-73
2022/04/06 09:11:06;;;;;;;;;;;13.00;99.90;;;;;;5052565;28;20472;-72
2022/04/06 09:13:31;;;;;;;;;;;12.40;99.90;;;;;;5052620;28;19962;-72
2022/04/06 09:16:00;;;;;;;;;;;12.10;99.90;;;;;;5053005;28;19908;-72
2022/04/06 09:18:33;;;;;;;;;;;11.80;99.90;;;;;;5052819;28;20019;-72
2022/04/06 09:21:00;;;;;;;;;;;13.30;99.90;;;;;;5052996;28;19991;-72
2022/04/06 09:23:28;;;;;;;;;;;14.90;99.90;;;;;;5052410;28;19913;-72
2022/04/06 09:25:53;;;;;;;;;;;16.00;97.20;;;;;;5052529;28;19913;-72
2022/04/06 09:28:19;;;;;;;;;;;16.70;95.10;;;;;;5052733;28;20327;-73
2022/04/06 09:30:45;;;;;;;;;;;17.40;92.70;;;;;;5053004;28;19966;-72
2022/04/06 09:33:12;;;;;;;;;;;18.60;90.90;;;;;;5052622;28;19909;-73
2022/04/06 09:35:38;;;;;;;;;;;16.70;91.60;;;;;;5052988;28;19976;-73
2022/04/06 09:38:14;;;;;;;;;;;15.10;92.30;;;;;;5051896;28;19913;-73
2022/04/06 09:40:40;;;;;;;;;;;15.30;93.20;;;;;;5051000;28;20369;-73
2022/04/06 09:43:06;;;;;;;;;;;16.70;92.00;;;;;;5052375;28;19920;-73
2022/04/06 09:48:16;;;;;;;;;;;15.80;90.80;;;;;;5052842;28;20398;-73
2022/04/06 09:50:51;;;;;;;;;;;16.40;89.20;;;;;;5052472;28;19913;-73
2022/04/06 09:53:17;;;;;;;;;;;17.80;87.60;;;;;;5049662;28;19908;-73
2022/04/06 09:55:43;;;;;;;;;;;17.60;86.00;;;;;;5050484;28;19935;-73
2022/04/06 09:58:10;;;;;;;;;;;16.50;87.60;;;;;;5052264;28;19955;-73
2022/04/06 10:00:37;;;;;;;;;;;16.50;89.80;;;;;;5047386;28;19916;-73
2022/04/06 10:03:06;;;;;;;;;;;17.90;86.70;;;;;;5057637;28;19963;-73
2022/04/06 10:05:33;;;;;;;;;;;16.90;90.30;;;;;;5050327;28;19920;-74
2022/04/06 10:08:05;;;;;;;;;;;18.00;85.90;;;;;;5051377;28;19913;-73
2022/04/06 10:10:31;;;;;;;;;;;19.10;82.00;;;;;;5050585;28;19954;-73
2022/04/06 10:12:57;;;;;;;;;;;17.10;85.70;;;;;;5051718;28;19915;-74
2022/04/06 10:15:26;;;;;;;;;;;15.90;90.40;;;;;;5051704;28;20011;-74
2022/04/06 10:17:52;;;;;;;;;;;15.80;88.20;;;;;;5050976;28;20400;-74
2022/04/06 10:20:21;;;;;;;;;;;17.20;85.60;;;;;;5051559;28;19909;-74
2022/04/06 10:22:51;;;;;;;;;;;17.00;83.20;;;;;;5051394;28;19913;-74
2022/04/06 10:25:20;;;;;;;;;;;16.70;83.60;;;;;;5051567;28;19909;-74
2022/04/06 10:27:48;;;;;;;;;;;16.20;87.00;;;;;;5051592;28;19909;-74
2022/04/06 10:30:22;;;;;;;;;;;16.20;87.30;;;;;;5051288;28;20003;-75
2022/04/06 10:32:48;;;;;;;;;;;16.20;88.40;;;;;;5045356;28;19909;-73
2022/04/06 10:35:17;;;;;;;;;;;19.70;79.90;;;;;;5040493;28;19962;-75
2022/04/06 10:37:52;;;;;;;;;;;17.60;80.50;;;;;;5050046;28;19913;-72
2022/04/06 10:40:18;;;;;;;;;;;15.90;85.90;;;;;;5048247;28;19956;-72
2022/04/06 10:42:45;;;;;;;;;;;17.20;85.00;;;;;;5061185;28;19966;-72
2022/04/06 10:45:34;;;;;;;;;;;19.10;83.50;;;;;;5043607;28;19929;-72
2022/04/06 10:48:18;;;;;;;;;;;18.00;80.20;;;;;;5049023;28;19951;-73
2022/04/06 10:50:48;;;;;;;;;;;20.60;76.40;;;;;;5051777;28;19957;-73
2022/04/06 10:53:16;;;;;;;;;;;20.10;75.90;;;;;;5050001;28;19979;-72
2022/04/06 10:55:54;;;;;;;;;;;21.10;70.80;;;;;;5052302;28;19909;-73
2022/04/06 10:58:23;;;;;;;;;;;18.20;74.70;;;;;;5052197;28;20374;-73
2022/04/06 11:01:07;;;;;;;;;;;16.90;79.20;;;;;;5050877;28;20315;-73
2022/04/06 11:03:34;;;;;;;;;;;17.60;80.00;;;;;;5050753;28;20120;-73
2022/04/06 11:05:59;;;;;;;;;;;21.40;69.40;;;;;;5055366;28;19909;-72
2022/04/06 11:11:36;;;;;;;;;;;22.30;66.10;;;;;;5045943;28;20401;-73
2022/04/06 11:14:02;;;;;;;;;;;18.40;71.90;;;;;;5050249;28;19916;-73
2022/04/06 11:16:41;;;;;;;;;;;17.20;74.30;;;;;;5050649;28;19912;-73
2022/04/06 11:19:07;;;;;;;;;;;21.90;67.20;;;;;;5048768;28;20426;-73
2022/04/06 11:21:33;;;;;;;;;;;22.10;68.80;;;;;;5050883;28;19948;-74
2022/04/06 11:23:58;;;;;;;;;;;21.90;66.10;;;;;;5050725;28;19919;-74
2022/04/06 11:26:24;;;;;;;;;;;20.70;65.30;;;;;;5050843;28;19909;-73
2022/04/06 11:28:57;;;;;;;;;;;19.90;68.60;;;;;;5050702;28;20411;-73
2022/04/06 11:31:22;;;;;;;;;;;22.60;62.80;;;;;;5053850;28;19970;-73
2022/04/06 11:33:48;;;;;;;;;;;20.80;66.90;;;;;;5051314;28;19909;-73
2022/04/06 11:36:14;;;;;;;;;;;19.70;70.60;;;;;;5054952;28;20043;-73
2022/04/06 11:38:40;;;;;;;;;;;22.10;67.50;;;;;;5053475;28;20332;-73
2022/04/06 11:41:06;;;;;;;;;;;20.50;67.50;;;;;;5054229;28;19924;-73
2022/04/06 11:43:31;;;;;;;;;;;18.90;71.80;;;;;;5054965;28;19939;-73
2022/04/06 11:45:57;;;;;;;;;;;20.90;68.20;;;;;;5054911;28;20286;-73
2022/04/06 11:48:23;;;;;;;;;;;17.90;72.70;;;;;;5055519;28;19917;-73
2022/04/06 11:50:49;;;;;;;;;;;16.10;77.70;;;;;;5055252;28;19909;-72
2022/04/06 11:53:18;;;;;;;;;;;15.50;78.00;;;;;;5052843;28;20023;-74
2022/04/06 11:55:51;;;;;;;;;;;19.20;73.10;;;;;;5054081;28;20407;-75
2022/04/06 11:58:38;;;;;;;;;;;20.20;71.20;;;;;;5054581;28;19913;-74
2022/04/06 12:01:04;;;;;;;;;;;23.60;63.50;;;;;;5050857;28;19967;-74
2022/04/06 12:03:30;;;;;;;;;;;24.00;59.60;;;;;;5052093;28;19913;-73
2022/04/06 12:05:56;;;;;;;;;;;23.60;59.60;;;;;;5055320;28;20277;-73
2022/04/06 12:08:23;;;;;;;;;;;22.90;58.10;;;;;;5054598;28;19913;-73
2022/04/06 12:10:49;;;;;;;;;;;22.90;58.10;;;;;;5054454;28;20281;-74
2022/04/06 12:13:15;;;;;;;;;;;20.10;63.40;;;;;;5054214;28;20427;-73
2022/04/06 12:15:41;;;;;;;;;;;17.70;71.60;;;;;;5054658;28;19913;-73
2022/04/06 12:18:07;;;;;;;;;;;17.70;75.00;;;;;;5054051;28;20403;-73
2022/04/06 12:20:32;;;;;;;;;;;16.80;74.80;;;;;;5054056;28;19913;-73
2022/04/06 12:22:59;;;;;;;;;;;16.40;76.60;;;;;;5053497;28;19913;-73
2022/04/06 12:25:28;;;;;;;;;;;16.00;76.20;;;;;;5053675;28;20007;-73
2022/04/06 12:28:08;;;;;;;;;;;16.20;76.60;;;;;;5053944;28;19987;-73
2022/04/06 12:30:33;;;;;;;;;;;15.90;77.50;;;;;;5053851;28;20565;-74
2022/04/06 12:32:59;;;;;;;;;;;16.30;78.30;;;;;;5050813;28;19944;-74
2022/04/06 12:35:24;;;;;;;;;;;16.20;76.50;;;;;;5052985;28;19909;-74
2022/04/06 12:37:50;;;;;;;;;;;15.70;74.60;;;;;;5048496;28;19948;-73
2022/04/06 12:40:19;;;;;;;;;;;15.80;78.60;;;;;;5051417;28;20354;-73
2022/04/06 12:42:45;;;;;;;;;;;16.10;77.50;;;;;;5053002;28;19963;-73
2022/04/06 12:45:12;;;;;;;;;;;16.10;78.90;;;;;;5053498;28;19945;-73
2022/04/06 12:47:38;;;;;;;;;;;16.10;79.00;;;;;;5052319;28;19912;-72
2022/04/06 12:50:29;;;;;;;;;;;16.20;78.90;;;;;;5053288;28;20364;-73
2022/04/06 12:53:02;;;;;;;;;;;16.50;78.50;;;;;;5047526;28;19908;-73
2022/04/06 12:55:28;;;;;;;;;;;16.50;76.40;;;;;;5052666;28;19908;-74
2022/04/06 12:58:12;;;;;;;;;;;16.50;74.70;;;;;;5059644;28;19979;-74
2022/04/06 13:00:38;;;;;;;;;;;16.30;77.50;;;;;;5053231;28;20305;-73
2022/04/06 13:03:04;;;;;;;;;;;16.40;77.50;;;;;;5052694;28;19924;-73
2022/04/06 13:05:31;;;;;;;;;;;16.20;78.10;;;;;;5053060;28;19909;-73
2022/04/06 13:07:56;;;;;;;;;;;15.90;78.20;;;;;;5053240;28;20271;-73
2022/04/06 13:10:34;;;;;;;;;;;15.80;77.90;;;;;;5053406;28;19916;-73
2022/04/06 13:13:00;;;;;;;;;;;15.80;79.40;;;;;;5052655;28;20373;-73
2022/04/06 13:15:26;;;;;;;;;;;16.40;78.50;;;;;;5052892;28;19909;-73
2022/04/06 13:17:52;;;;;;;;;;;16.50;78.60;;;;;;5053147;28;19916;-73
2022/04/06 13:20:18;;;;;;;;;;;16.30;78.50;;;;;;5052819;28;20045;-73
2022/04/06 13:22:45;;;;;;;;;;;16.40;79.70;;;;;;5052414;28;19912;-73
2022/04/06 13:25:12;;;;;;;;;;;15.90;79.80;;;;;;5052777;28;19909;-73
2022/04/06 13:27:37;;;;;;;;;;;15.60;79.50;;;;;;5052806;28;20286;-74
2022/04/06 13:30:04;;;;;;;;;;;15.60;80.50;;;;;;5048626;28;19909;-73
2022/04/06 13:32:29;;;;;;;;;;;15.50;80.50;;;;;;5051662;28;20058;-74
2022/04/06 13:34:55;;;;;;;;;;;15.20;80.10;;;;;;5049229;28;20007;-73
2022/04/06 13:37:20;;;;;;;;;;;14.70;80.60;;;;;;5052802;28;19920;-73
2022/04/06 13:39:47;;;;;;;;;;;14.40;83.40;;;;;;5048137;28;19952;-73
2022/04/06 13:42:12;;;;;;;;;;;14.70;83.10;;;;;;5052353;28;19952;-73
2022/04/06 13:44:38;;;;;;;;;;;14.80;82.90;;;;;;5052529;28;20001;-73
2022/04/06 13:47:04;;;;;;;;;;;14.80;83.40;;;;;;5052941;28;19908;-74
2022/04/06 13:49:30;;;;;;;;;;;15.20;81.60;;;;;;5052824;28;19941;-73
2022/04/06 13:51:55;;;;;;;;;;;15.30;81.10;;;;;;5052130;28;19908;-73
2022/04/06 13:54:24;;;;;;;;;;;15.10;82.20;;;;;;5047812;28;19916;-73
2022/04/06 13:56:50;;;;;;;;;;;15.00;81.90;;;;;;5056702;28;20277;-73
2022/04/06 13:59:16;;;;;;;;;;;14.90;82.90;;;;;;5052317;28;19908;-73
2022/04/06 14:01:42;;;;;;;;;;;15.00;83.00;;;;;;5049393;28;19909;-73
2022/04/06 14:04:08;;;;;;;;;;;14.90;82.60;;;;;;5054373;28;19919;-73
2022/04/06 14:06:34;;;;;;;;;;;14.80;82.50;;;;;;5052197;28;20330;-73
2022/04/06 14:08:59;;;;;;;;;;;14.80;83.30;;;;;;5052070;28;19909;-74
2022/04/06 14:11:25;;;;;;;;;;;14.80;82.60;;;;;;5051704;28;19986;-73
2022/04/06 14:13:51;;;;;;;;;;;14.70;83.70;;;;;;5045934;28;19916;-73
2022/04/06 14:16:17;;;;;;;;;;;14.60;83.60;;;;;;5053409;28;19963;-73
2022/04/06 14:18:44;;;;;;;;;;;14.70;84.30;;;;;;5052126;28;19920;-73
2022/04/06 14:21:10;;;;;;;;;;;15.30;83.70;;;;;;5051478;28;19909;-73
2022/04/06 14:23:38;;;;;;;;;;;15.90;84.10;;;;;;5051028;28;20285;-73
2022/04/06 14:26:05;;;;;;;;;;;16.40;79.80;;;;;;5051665;28;19916;-73
2022/04/06 14:28:31;;;;;;;;;;;16.60;81.90;;;;;;5051733;28;19916;-74
2022/04/06 14:30:57;;;;;;;;;;;18.60;76.10;;;;;;5051506;28;20332;-72
2022/04/06 14:33:22;;;;;;;;;;;21.30;67.20;;;;;;5051255;28;20477;-73